createdAt,value
2023-07-14T00:02:42.927Z,349.58
2023-07-14T00:08:33.748Z,350.44
2023-07-14T00:20:03.187Z,350.64
2023-07-14T00:24:54.366Z,350.85
2023-07-14T00:30:51.051Z,351.75
2023-07-14T00:36:47.334Z,352.33
2023-07-14T00:42:43.474Z,353.28
2023-07-14T00:54:46.103Z,354.09
2023-07-14T01:01:31.436Z,354.67
2023-07-14T01:07:28.915Z,355.14
2023-07-14T01:12:48.400Z,355.15
2023-07-14T01:30:02.184Z,355.65
2023-07-14T01:36:15.457Z,355.38
2023-07-14T01:41:33.459Z,355.91
2023-07-14T01:48:03.519Z,355.67
2023-07-14T01:52:35.488Z,355.81
2023-07-14T02:09:16.515Z,357.14
2023-07-14T02:15:02.885Z,358.07
2023-07-14T02:21:09.684Z,358.55
2023-07-14T02:26:13.954Z,358.37
2023-07-14T02:31:25.511Z,359.19
2023-07-14T02:37:18.554Z,359.39
2023-07-14T02:43:07.248Z,360.12
2023-07-14T02:48:29.130Z,359.98
2023-07-14T02:54:23.239Z,359.53
2023-07-14T03:03:44.810Z,359.49
2023-07-14T03:05:16.551Z,359.80
2023-07-14T03:11:22.868Z,359.51
2023-07-14T03:16:41.060Z,360.26
2023-07-14T03:21:54.422Z,360.78
2023-07-14T03:27:49.297Z,360.89
2023-07-14T03:33:51.805Z,360.59
2023-07-14T03:38:24.745Z,360.78
2023-07-14T03:44:07.917Z,360.34
2023-07-14T03:49:37.800Z,360.33
2023-07-14T03:55:18.360Z,360.91
2023-07-14T04:00:32.274Z,360.65
2023-07-14T04:05:55.963Z,361.43
2023-07-14T04:11:38.409Z,361.30
2023-07-14T04:17:35.862Z,362.27
2023-07-14T04:23:23.181Z,362.37
2023-07-14T04:29:14.085Z,363.45
2023-07-14T04:35:13.761Z,363.66
2023-07-14T04:40:37.200Z,363.27
2023-07-14T04:46:21.631Z,363.57
2023-07-14T04:57:45.595Z,364.54
2023-07-14T05:03:14.377Z,365.02
2023-07-14T05:08:44.607Z,365.21
2023-07-14T05:14:48.577Z,365.85
2023-07-14T05:20:46.593Z,365.67
2023-07-14T05:26:32.290Z,365.88
2023-07-14T05:32:17.642Z,366.31
2023-07-14T05:37:44.861Z,366.16
2023-07-14T05:43:24.732Z,365.41
2023-07-14T05:49:07.154Z,365.54
2023-07-14T05:55:28.292Z,366.73
2023-07-14T06:00:17.124Z,367.24
2023-07-14T06:06:22.399Z,367.40
2023-07-14T06:11:33.287Z,368.39
2023-07-14T06:17:06.058Z,367.95
2023-07-14T06:22:53.809Z,367.91
2023-07-14T06:28:44.995Z,367.89
2023-07-14T06:36:30.456Z,368.09
2023-07-14T06:40:14.460Z,368.49
2023-07-14T06:45:01.429Z,369.36
2023-07-14T06:51:28.911Z,370.31
2023-07-14T06:56:18.828Z,370.70
2023-07-14T07:01:25.073Z,371.38
2023-07-14T07:06:54.083Z,372.39
2023-07-14T07:12:45.610Z,372.75
2023-07-14T07:18:45.551Z,373.12
2023-07-14T07:25:19.575Z,373.69
2023-07-14T07:28:43.755Z,374.37
2023-07-14T07:33:51.690Z,375.16
2023-07-14T07:39:03.585Z,375.26
2023-07-14T07:45:09.148Z,375.56
2023-07-14T07:50:16.330Z,376.32
2023-07-14T07:56:09.163Z,376.89
2023-07-14T08:02:03.861Z,377.77
2023-07-14T08:07:15.420Z,378.68
2023-07-14T08:12:27.681Z,378.98
2023-07-14T08:17:47.149Z,379.16
2023-07-14T08:24:04.939Z,379.57
2023-07-14T08:28:42.869Z,379.15
2023-07-14T08:39:07.483Z,379.35
2023-07-14T08:45:22.635Z,379.45
2023-07-14T08:49:57.232Z,379.97
2023-07-14T08:54:24.356Z,379.04
2023-07-14T08:54:49.585Z,380.21
2023-07-14T09:00:00.204Z,380.48
2023-07-14T09:05:47.800Z,381.05
2023-07-14T09:11:42.750Z,381.43
2023-07-14T09:16:44.536Z,381.54
2023-07-14T09:22:00.477Z,382.02
2023-07-14T09:36:41.722Z,382.73
2023-07-14T09:42:22.896Z,382.54
2023-07-14T09:48:23.654Z,383.41
2023-07-14T09:54:13.973Z,383.41
2023-07-14T10:11:05.513Z,384.68
2023-07-14T10:16:21.520Z,384.60
2023-07-14T10:21:39.164Z,385.54
2023-07-14T10:36:06.477Z,386.99
2023-07-14T10:41:50.570Z,387.74
2023-07-14T10:47:42.867Z,388.69
2023-07-14T10:53:32.749Z,389.31
2023-07-14T11:00:20.968Z,390.45
2023-07-14T11:04:49.376Z,391.09
2023-07-14T11:09:58.063Z,391.64
2023-07-14T11:17:49.547Z,391.86
2023-07-14T11:21:05.078Z,392.79
2023-07-14T11:42:12.767Z,393.93
2023-07-14T12:01:02.820Z,394.51
2023-07-14T12:14:16.271Z,395.89
2023-07-14T12:31:47.506Z,395.59
2023-07-14T12:37:47.773Z,396.29
2023-07-14T12:44:12.900Z,397.31
2023-07-14T12:50:01.491Z,397.40
2023-07-14T13:06:33.672Z,398.92
2023-07-14T13:12:31.281Z,399.48
2023-07-14T13:34:02.906Z,399.71
2023-07-14T13:49:11.958Z,400.55
2023-07-14T13:56:03.148Z,400.69
2023-07-14T14:03:33.721Z,401.51
2023-07-14T14:12:39.578Z,402.17
2023-07-14T14:18:55.667Z,403.30
2023-07-14T14:24:46.791Z,404.19
2023-07-14T15:43:26.453Z,410.10
2023-07-14T15:52:39.939Z,410.54
2023-07-14T15:58:42.432Z,411.06
2023-07-14T16:04:25.175Z,410.69
2023-07-14T16:10:11.621Z,410.52
2023-07-14T16:15:54.112Z,410.90
2023-07-14T16:26:20.165Z,411.24
2023-07-14T16:31:50.139Z,411.07
2023-07-14T16:36:59.233Z,410.95
2023-07-14T16:43:07.479Z,410.83
2023-07-14T16:49:11.348Z,411.25
2023-07-14T16:54:30.093Z,410.71
2023-07-14T17:00:15.568Z,410.90
2023-07-14T17:06:02.697Z,411.20
2023-07-14T17:23:11.992Z,411.29
2023-07-14T17:34:14.285Z,411.15
2023-07-14T17:39:57.932Z,411.34
2023-07-14T17:45:43.075Z,411.97
2023-07-14T17:51:29.634Z,411.98
2023-07-14T17:57:21.011Z,411.85
2023-07-14T18:08:43.268Z,411.67
2023-07-14T18:13:17.594Z,411.53
2023-07-14T18:19:04.641Z,411.52
2023-07-14T18:24:58.342Z,411.22
2023-07-14T18:30:12.347Z,411.67
2023-07-14T18:35:59.574Z,411.69
2023-07-14T18:41:41.986Z,411.89
2023-07-14T18:47:24.546Z,411.87
2023-07-14T18:58:20.946Z,411.80
2023-07-14T19:04:03.569Z,411.20
2023-07-14T19:09:53.293Z,411.07
2023-07-14T19:21:27.050Z,410.35
2023-07-14T19:27:09.319Z,409.61
2023-07-14T19:32:58.615Z,409.03
2023-07-14T19:44:43.534Z,407.84
2023-07-14T19:50:14.121Z,407.29
2023-07-14T20:01:28.676Z,407.07
2023-07-14T20:07:16.208Z,407.05
2023-07-14T20:12:58.918Z,406.78
2023-07-14T20:18:50.757Z,407.35
2023-07-14T20:35:20.404Z,405.55
2023-07-14T20:41:07.734Z,405.48
2023-07-14T20:49:10.786Z,405.06
2023-07-14T20:54:08.088Z,404.53
2023-07-14T20:58:20.280Z,403.77
2023-07-14T21:04:11.619Z,403.80
2023-07-14T21:09:16.020Z,403.17
2023-07-14T21:14:39.411Z,403.10
2023-07-14T21:19:57.991Z,402.09
2023-07-14T21:25:27.649Z,401.73
2023-07-14T21:31:25.666Z,401.52
2023-07-14T21:37:03.159Z,401.72
2023-07-14T21:42:40.266Z,401.00
2023-07-14T21:48:27.589Z,401.12
2023-07-14T21:54:18.812Z,400.52
2023-07-14T22:04:18.081Z,400.55
2023-07-14T22:05:01.929Z,400.46
2023-07-14T22:10:59.331Z,400.28
2023-07-14T22:16:36.365Z,400.52
2023-07-14T22:21:53.903Z,400.38
2023-07-14T22:27:06.450Z,400.59
2023-07-14T22:32:27.226Z,400.30
2023-07-14T22:38:12.963Z,399.62
2023-07-14T22:43:57.116Z,399.99
2023-07-14T22:50:27.394Z,399.34
2023-07-14T22:54:30.761Z,399.79
2023-07-14T22:59:37.080Z,399.76
2023-07-14T23:05:02.489Z,399.16
2023-07-14T23:10:16.809Z,398.55
2023-07-14T23:16:04.323Z,398.40
2023-07-14T23:21:49.679Z,398.53
2023-07-14T23:27:10.819Z,397.38
2023-07-14T23:32:55.494Z,398.01
2023-07-14T23:38:16.161Z,398.32
2023-07-14T23:44:13.363Z,398.43
2023-07-14T23:49:26.690Z,397.87
2023-07-14T23:54:41.285Z,398.10
